createdAt,value
2018-12-06T00:02:01.890Z,101213.80
2018-12-06T00:04:29.538Z,101212.72
2018-12-06T00:06:57.016Z,101201.88
2018-12-06T00:09:24.482Z,101200.82
2018-12-06T00:11:51.966Z,101200.95
2018-12-06T00:14:19.403Z,101196.16
2018-12-06T00:16:51.607Z,101201.84
2018-12-06T00:19:19.071Z,101209.98
2018-12-06T00:21:46.533Z,101208.28
2018-12-06T00:24:14.007Z,101221.72
2018-12-06T00:26:41.508Z,101214.91
2018-12-06T00:29:08.952Z,101200.69
2018-12-06T00:31:36.448Z,101196.46
2018-12-06T00:34:04.342Z,101199.92
2018-12-06T00:36:31.859Z,101198.56
2018-12-06T00:38:59.309Z,101203.73
2018-12-06T00:41:26.766Z,101206.36
2018-12-06T00:43:54.254Z,101205.41
2018-12-06T00:46:21.741Z,101206.77
2018-12-06T00:48:49.213Z,101206.55
2018-12-06T00:51:16.691Z,101196.90
2018-12-06T00:53:44.126Z,101189.56
2018-12-06T00:56:11.631Z,101195.35
2018-12-06T00:58:39.073Z,101197.27
2018-12-06T01:01:06.537Z,101193.47
2018-12-06T01:03:34.647Z,101198.56
2018-12-06T01:06:02.121Z,101198.50
2018-12-06T01:08:29.731Z,101202.63
2018-12-06T01:10:57.219Z,101201.70
2018-12-06T01:13:24.720Z,101199.06
2018-12-06T01:15:52.168Z,101197.38
2018-12-06T01:18:19.663Z,101195.66
2018-12-06T01:20:47.135Z,101193.47
2018-12-06T01:23:14.747Z,101205.95
2018-12-06T01:25:42.214Z,101202.13
2018-12-06T01:28:09.691Z,101199.70
2018-12-06T01:30:38.641Z,101200.78
2018-12-06T01:33:06.522Z,101204.05
2018-12-06T01:35:34.994Z,101198.00
2018-12-06T01:38:02.486Z,101195.91
2018-12-06T01:40:29.911Z,101198.06
2018-12-06T01:42:57.371Z,101194.98
2018-12-06T01:45:24.842Z,101194.50
2018-12-06T01:47:52.306Z,101187.03
2018-12-06T01:50:19.792Z,101190.17
2018-12-06T01:52:47.272Z,101183.06
2018-12-06T01:55:14.729Z,101183.74
2018-12-06T01:57:42.219Z,101186.58
2018-12-06T02:00:09.886Z,101180.45
2018-12-06T02:02:37.367Z,101175.52
2018-12-06T02:05:05.445Z,101185.22
2018-12-06T02:07:32.937Z,101183.80
2018-12-06T02:10:00.424Z,101179.48
2018-12-06T02:12:27.875Z,101183.25
2018-12-06T02:14:55.339Z,101177.08
2018-12-06T02:17:22.784Z,101180.32
2018-12-06T02:19:50.266Z,101181.16
2018-12-06T02:22:17.754Z,101184.05
2018-12-06T02:24:45.205Z,101180.62
2018-12-06T02:27:12.670Z,101184.55
2018-12-06T02:29:45.948Z,101178.28
2018-12-06T02:32:13.400Z,101181.83
2018-12-06T02:34:40.986Z,101178.07
2018-12-06T02:37:08.565Z,101182.11
2018-12-06T02:39:36.039Z,101179.73
2018-12-06T02:42:03.636Z,101177.36
2018-12-06T02:44:31.276Z,101176.53
2018-12-06T02:46:58.750Z,101178.99
2018-12-06T02:49:26.233Z,101179.52
2018-12-06T02:51:53.797Z,101171.78
2018-12-06T02:54:21.316Z,101176.13
2018-12-06T02:56:48.784Z,101174.95
2018-12-06T02:59:16.261Z,101164.91
2018-12-06T03:01:43.748Z,101169.75
2018-12-06T03:04:12.485Z,101180.34
2018-12-06T03:06:39.959Z,101175.42
2018-12-06T03:09:07.520Z,101177.27
2018-12-06T03:11:36.059Z,101176.56
2018-12-06T03:14:03.623Z,101174.33
2018-12-06T03:16:31.143Z,101170.84
2018-12-06T03:18:58.598Z,101171.35
2018-12-06T03:21:26.070Z,101173.27
2018-12-06T03:23:53.521Z,101181.98
2018-12-06T03:26:21.293Z,101183.44
2018-12-06T03:28:48.742Z,101184.23
2018-12-06T03:31:16.241Z,101179.50
2018-12-06T03:33:43.737Z,101172.61
2018-12-06T03:36:11.179Z,101178.28
2018-12-06T03:38:38.663Z,101180.74
2018-12-06T03:41:06.537Z,101182.09
2018-12-06T03:43:34.020Z,101181.45
2018-12-06T03:46:01.476Z,101182.47
2018-12-06T03:48:28.998Z,101181.20
2018-12-06T03:50:56.452Z,101181.53
2018-12-06T03:53:23.925Z,101178.48
2018-12-06T03:55:51.430Z,101181.61
2018-12-06T03:58:19.265Z,101175.38
2018-12-06T04:00:46.710Z,101168.60
2018-12-06T04:03:14.210Z,101165.27
2018-12-06T04:05:41.668Z,101168.30
2018-12-06T04:08:09.129Z,101167.98
2018-12-06T04:10:36.741Z,101179.58
2018-12-06T04:13:04.236Z,101178.72
2018-12-06T04:15:31.813Z,101186.85
2018-12-06T04:17:59.291Z,101187.25
2018-12-06T04:20:26.745Z,101180.62
2018-12-06T04:22:54.215Z,101164.97
2018-12-06T04:25:21.762Z,101172.18
2018-12-06T04:27:49.240Z,101171.13
2018-12-06T04:30:16.686Z,101179.18
2018-12-06T04:32:44.183Z,101185.22
2018-12-06T04:35:11.688Z,101182.23
2018-12-06T04:37:39.151Z,101176.22
2018-12-06T04:40:07.065Z,101175.27
2018-12-06T04:42:34.571Z,101191.30
2018-12-06T04:45:02.005Z,101196.99
2018-12-06T04:47:29.490Z,101205.75
2018-12-06T04:49:57.130Z,101208.31
2018-12-06T04:52:24.607Z,101197.92
2018-12-06T04:54:52.057Z,101205.35
2018-12-06T04:57:19.535Z,101220.61
2018-12-06T04:59:47.126Z,101210.56
2018-12-06T05:02:14.607Z,101209.52
2018-12-06T05:04:42.070Z,101218.21
2018-12-06T05:07:09.516Z,101230.08
2018-12-06T05:09:37.386Z,101221.58
2018-12-06T05:12:04.951Z,101218.30
2018-12-06T05:14:32.416Z,101217.91
2018-12-06T05:16:59.893Z,101221.55
2018-12-06T05:19:27.397Z,101214.60
2018-12-06T05:21:54.910Z,101215.80
2018-12-06T05:24:22.393Z,101220.67
2018-12-06T05:26:49.891Z,101216.14
2018-12-06T05:29:17.327Z,101219.00
2018-12-06T05:31:44.792Z,101222.21
2018-12-06T05:34:12.257Z,101220.70
2018-12-06T05:36:39.857Z,101220.52
2018-12-06T05:39:07.880Z,101235.63
2018-12-06T05:41:35.321Z,101234.80
2018-12-06T05:44:03.290Z,101244.39
2018-12-06T05:46:30.746Z,101238.62
2018-12-06T05:48:58.221Z,101238.81
2018-12-06T05:51:25.705Z,101249.17
2018-12-06T05:53:53.190Z,101250.53
2018-12-06T05:56:20.647Z,101244.08
2018-12-06T05:58:48.156Z,101239.92
2018-12-06T06:01:15.616Z,101237.61
2018-12-06T06:03:43.565Z,101233.63
2018-12-06T06:06:11.169Z,101232.12
2018-12-06T06:08:38.665Z,101244.05
2018-12-06T06:11:06.154Z,101248.56
2018-12-06T06:13:33.629Z,101252.19
2018-12-06T06:16:01.077Z,101234.00
2018-12-06T06:18:28.603Z,101230.08
2018-12-06T06:20:56.094Z,101242.88
2018-12-06T06:23:23.690Z,101261.63
2018-12-06T06:25:51.146Z,101265.05
2018-12-06T06:28:18.607Z,101267.95
2018-12-06T06:30:46.100Z,101277.70
2018-12-06T06:33:13.566Z,101288.03
2018-12-06T06:35:41.049Z,101296.27
2018-12-06T06:38:08.511Z,101309.30
2018-12-06T06:40:35.995Z,101313.92
2018-12-06T06:43:03.494Z,101320.30
2018-12-06T06:45:30.996Z,101312.97
2018-12-06T06:47:58.484Z,101316.79
2018-12-06T06:50:25.986Z,101314.16
2018-12-06T06:52:53.446Z,101312.99
2018-12-06T06:55:20.981Z,101310.84
2018-12-06T06:57:48.451Z,101317.72
2018-12-06T07:00:15.931Z,101319.22
2018-12-06T07:02:43.420Z,101313.14
2018-12-06T07:05:10.867Z,101326.57
2018-12-06T07:07:38.704Z,101336.33
2018-12-06T07:10:07.196Z,101346.84
2018-12-06T07:12:34.667Z,101346.38
2018-12-06T07:15:02.170Z,101343.02
2018-12-06T07:17:29.612Z,101339.81
2018-12-06T07:19:57.081Z,101341.16
2018-12-06T07:22:24.579Z,101332.80
2018-12-06T07:24:52.044Z,101340.45
2018-12-06T07:27:19.511Z,101344.99
2018-12-06T07:29:48.505Z,101349.63
2018-12-06T07:32:16.241Z,101354.90
2018-12-06T07:34:45.145Z,101353.38
2018-12-06T07:37:12.639Z,101357.39
2018-12-06T07:39:40.149Z,101370.39
2018-12-06T07:42:07.624Z,101376.81
2018-12-06T07:44:35.124Z,101376.47
2018-12-06T07:47:02.695Z,101383.41
2018-12-06T07:49:30.159Z,101388.84
2018-12-06T07:51:57.679Z,101384.64
2018-12-06T07:54:25.194Z,101396.28
2018-12-06T07:56:52.758Z,101391.59
2018-12-06T07:59:20.236Z,101387.88
2018-12-06T08:01:47.675Z,101380.88
2018-12-06T08:04:15.180Z,101381.09
2018-12-06T08:06:42.680Z,101376.64
2018-12-06T08:09:10.168Z,101372.46
2018-12-06T08:11:38.681Z,101379.41
2018-12-06T08:14:06.338Z,101383.87
2018-12-06T08:16:34.630Z,101371.39
2018-12-06T08:19:02.094Z,101365.16
2018-12-06T08:21:29.683Z,101363.10
2018-12-06T08:23:57.149Z,101363.23
2018-12-06T08:26:24.635Z,101371.32
2018-12-06T08:28:52.101Z,101371.32
2018-12-06T08:31:19.585Z,101375.95
2018-12-06T08:33:47.089Z,101371.56
2018-12-06T08:36:14.683Z,101376.83
2018-12-06T08:38:42.120Z,101379.66
2018-12-06T08:41:09.580Z,101388.47
2018-12-06T08:43:37.041Z,101393.70
2018-12-06T08:46:04.515Z,101389.45
2018-12-06T08:48:32.104Z,101385.61
2018-12-06T08:50:59.580Z,101386.66
2018-12-06T08:53:27.050Z,101391.89
2018-12-06T08:55:54.525Z,101384.91
2018-12-06T08:58:22.033Z,101399.63
2018-12-06T09:00:49.490Z,101394.67
2018-12-06T09:03:16.977Z,101397.39
2018-12-06T09:05:44.434Z,101393.34
2018-12-06T09:08:12.043Z,101388.29
2018-12-06T09:10:40.678Z,101393.23
2018-12-06T09:13:08.329Z,101387.37
2018-12-06T09:15:35.843Z,101381.92
2018-12-06T09:18:03.428Z,101378.97
2018-12-06T09:20:30.920Z,101381.23
2018-12-06T09:22:58.413Z,101391.38
2018-12-06T09:25:25.900Z,101395.95
2018-12-06T09:27:53.383Z,101397.94
2018-12-06T09:30:20.878Z,101405.78
2018-12-06T09:32:48.378Z,101420.14
2018-12-06T09:35:15.859Z,101433.56
2018-12-06T09:37:43.483Z,101421.44
2018-12-06T09:40:10.946Z,101402.75
2018-12-06T09:42:38.940Z,101411.12
2018-12-06T09:45:06.819Z,101412.80
2018-12-06T09:47:34.309Z,101417.40
2018-12-06T09:50:01.878Z,101420.55
2018-12-06T09:52:29.359Z,101427.80
2018-12-06T09:54:56.833Z,101420.91
2018-12-06T09:57:24.345Z,101420.94
2018-12-06T09:59:51.805Z,101422.06
2018-12-06T10:02:19.268Z,101419.84
2018-12-06T10:04:46.768Z,101426.09
2018-12-06T10:07:14.235Z,101431.59
2018-12-06T10:09:41.738Z,101429.52
2018-12-06T10:12:09.231Z,101426.52
2018-12-06T10:14:36.694Z,101425.66
2018-12-06T10:17:04.271Z,101424.68
2018-12-06T10:19:31.800Z,101423.61
2018-12-06T10:21:59.330Z,101431.50
2018-12-06T10:24:26.804Z,101425.24
2018-12-06T10:26:54.288Z,101433.34
2018-12-06T10:29:21.789Z,101431.41
2018-12-06T10:31:49.244Z,101431.97
2018-12-06T10:34:16.710Z,101442.88
2018-12-06T10:36:44.198Z,101442.64
2018-12-06T10:39:11.690Z,101446.08
2018-12-06T10:41:39.324Z,101443.47
2018-12-06T10:44:06.829Z,101444.45
2018-12-06T10:46:34.288Z,101441.97
2018-12-06T10:49:01.773Z,101439.48
2018-12-06T10:51:38.225Z,101441.33
2018-12-06T10:54:05.733Z,101437.23
2018-12-06T10:56:33.209Z,101438.38
2018-12-06T10:59:00.674Z,101427.90
2018-12-06T11:01:33.781Z,101432.80
2018-12-06T11:04:01.253Z,101432.97
2018-12-06T11:06:28.743Z,101428.94
2018-12-06T11:08:56.208Z,101421.64
2018-12-06T11:11:23.703Z,101428.14
2018-12-06T11:14:21.074Z,101429.73
2018-12-06T11:16:48.555Z,101437.92
2018-12-06T11:19:16.035Z,101445.96
2018-12-06T11:21:43.498Z,101450.61
2018-12-06T11:24:11.165Z,101457.11
2018-12-06T11:26:38.614Z,101459.83
2018-12-06T11:29:06.110Z,101463.77
2018-12-06T11:31:33.593Z,101464.95
2018-12-06T11:34:01.070Z,101460.53
2018-12-06T11:36:28.561Z,101474.97
2018-12-06T11:38:56.079Z,101470.40
2018-12-06T11:41:23.544Z,101470.40
2018-12-06T11:43:51.000Z,101472.89
2018-12-06T11:46:18.504Z,101472.41
2018-12-06T11:48:45.959Z,101472.70
2018-12-06T11:51:13.443Z,101470.75
2018-12-06T11:53:41.604Z,101478.64
2018-12-06T11:56:09.096Z,101470.14
2018-12-06T11:58:36.550Z,101459.06
2018-12-06T12:01:04.266Z,101463.92
2018-12-06T12:03:31.735Z,101470.31
2018-12-06T12:05:59.239Z,101468.20
2018-12-06T12:08:26.815Z,101472.53
2018-12-06T12:10:54.295Z,101476.06
2018-12-06T12:13:21.768Z,101466.03
2018-12-06T12:15:49.459Z,101469.23
2018-12-06T12:18:16.959Z,101465.47
2018-12-06T12:20:44.434Z,101467.40
2018-12-06T12:23:11.910Z,101459.81
2018-12-06T12:25:39.376Z,101462.78
2018-12-06T12:28:06.850Z,101459.73
2018-12-06T12:30:34.322Z,101460.72
2018-12-06T12:33:01.799Z,101448.04
2018-12-06T12:35:29.269Z,101459.75
2018-12-06T12:37:57.369Z,101457.20
2018-12-06T12:40:24.862Z,101453.12
2018-12-06T12:42:52.337Z,101455.47
2018-12-06T12:45:19.782Z,101445.75
2018-12-06T12:47:47.261Z,101427.16
2018-12-06T12:50:14.740Z,101432.68
2018-12-06T12:52:42.253Z,101445.79
2018-12-06T12:55:09.805Z,101444.25
2018-12-06T12:57:37.299Z,101445.94
2018-12-06T13:00:06.575Z,101440.66
2018-12-06T13:02:34.048Z,101443.77
2018-12-06T13:05:01.563Z,101440.01
2018-12-06T13:07:29.130Z,101434.88
2018-12-06T13:09:56.845Z,101446.09
2018-12-06T13:12:24.299Z,101439.59
2018-12-06T13:14:51.761Z,101441.84
2018-12-06T13:17:19.229Z,101444.95
2018-12-06T13:19:46.716Z,101448.66
2018-12-06T13:22:14.344Z,101443.63
2018-12-06T13:24:42.512Z,101443.69
2018-12-06T13:27:10.000Z,101441.61
2018-12-06T13:29:37.493Z,101443.11
2018-12-06T13:32:04.985Z,101439.97
2018-12-06T13:34:32.473Z,101436.70
2018-12-06T13:36:59.928Z,101443.34
2018-12-06T13:39:27.533Z,101441.52
2018-12-06T13:41:54.971Z,101448.09
2018-12-06T13:44:22.430Z,101444.63
2018-12-06T13:46:49.928Z,101447.34
2018-12-06T13:49:17.379Z,101444.38
2018-12-06T13:51:44.880Z,101444.80
2018-12-06T13:54:13.653Z,101439.02
2018-12-06T13:56:41.103Z,101436.06
2018-12-06T13:59:08.616Z,101430.36
2018-12-06T14:01:36.090Z,101433.33
2018-12-06T14:04:03.583Z,101430.84
2018-12-06T14:06:31.078Z,101431.82
2018-12-06T14:08:58.548Z,101426.13
2018-12-06T14:11:26.019Z,101421.53
2018-12-06T14:13:53.502Z,101419.07
2018-12-06T14:16:21.008Z,101429.56
2018-12-06T14:18:48.459Z,101433.42
2018-12-06T14:21:15.976Z,101432.53
2018-12-06T14:23:43.414Z,101439.92
2018-12-06T14:26:11.229Z,101440.95
2018-12-06T14:28:38.792Z,101441.75
2018-12-06T14:31:06.264Z,101449.79
2018-12-06T14:33:33.751Z,101446.32
2018-12-06T14:36:01.208Z,101451.95
2018-12-06T14:38:28.819Z,101459.91
2018-12-06T14:40:56.319Z,101463.67
2018-12-06T14:43:24.023Z,101458.21
2018-12-06T14:45:51.850Z,101453.09
2018-12-06T14:48:19.653Z,101449.14
2018-12-06T14:50:47.101Z,101443.77
2018-12-06T14:53:14.544Z,101448.52
2018-12-06T14:55:42.141Z,101445.52
2018-12-06T14:58:09.628Z,101444.16
2018-12-06T15:00:37.095Z,101445.94
2018-12-06T15:03:04.589Z,101447.95
2018-12-06T15:05:32.129Z,101451.77
2018-12-06T15:07:59.613Z,101456.05
2018-12-06T15:10:27.101Z,101449.70
2018-12-06T15:12:54.578Z,101441.84
2018-12-06T15:15:22.082Z,101435.91
2018-12-06T15:17:49.569Z,101440.95
2018-12-06T15:20:17.079Z,101440.89
2018-12-06T15:22:44.568Z,101449.38
2018-12-06T15:25:12.056Z,101444.58
2018-12-06T15:27:39.748Z,101437.98
2018-12-06T15:30:07.863Z,101436.63
2018-12-06T15:32:35.298Z,101443.20
2018-12-06T15:35:02.797Z,101437.90
2018-12-06T15:37:30.274Z,101437.09
2018-12-06T15:39:57.759Z,101437.09
2018-12-06T15:42:25.228Z,101441.18
2018-12-06T15:44:52.724Z,101438.22
2018-12-06T15:47:20.197Z,101447.67
2018-12-06T15:49:47.664Z,101440.30
2018-12-06T15:52:15.158Z,101441.59
2018-12-06T15:54:42.755Z,101446.08
2018-12-06T15:57:10.215Z,101435.83
2018-12-06T15:59:37.706Z,101439.68
2018-12-06T16:02:05.389Z,101437.66
2018-12-06T16:04:32.877Z,101442.45
2018-12-06T16:07:00.362Z,101433.65
2018-12-06T16:09:27.922Z,101432.28
2018-12-06T16:11:55.379Z,101430.09
2018-12-06T16:14:22.853Z,101428.19
2018-12-06T16:16:50.319Z,101430.41
2018-12-06T16:19:17.857Z,101427.45
2018-12-06T16:21:45.327Z,101431.30
2018-12-06T16:24:12.804Z,101419.83
2018-12-06T16:26:40.290Z,101418.37
2018-12-06T16:29:07.788Z,101421.66
2018-12-06T16:31:35.283Z,101419.67
2018-12-06T16:34:02.769Z,101421.38
2018-12-06T16:36:30.368Z,101423.27
2018-12-06T16:38:57.917Z,101419.91
2018-12-06T16:41:25.432Z,101421.75
2018-12-06T16:43:52.919Z,101430.59
2018-12-06T16:46:20.364Z,101421.05
2018-12-06T16:48:47.845Z,101426.73
2018-12-06T16:51:15.340Z,101427.67
2018-12-06T16:53:42.793Z,101424.86
2018-12-06T16:56:10.254Z,101431.67
2018-12-06T16:58:38.322Z,101432.19
2018-12-06T17:01:05.781Z,101429.55
2018-12-06T17:03:33.259Z,101426.73
2018-12-06T17:06:00.752Z,101425.94
2018-12-06T17:08:28.321Z,101424.58
2018-12-06T17:10:55.803Z,101421.38
2018-12-06T17:13:23.295Z,101421.38
2018-12-06T17:15:50.817Z,101421.04
2018-12-06T17:18:18.289Z,101419.27
2018-12-06T17:20:46.539Z,101419.36
2018-12-06T17:23:14.734Z,101422.55
2018-12-06T17:25:42.252Z,101417.91
2018-12-06T17:28:09.733Z,101421.77
2018-12-06T17:30:37.204Z,101416.16
2018-12-06T17:33:04.729Z,101416.72
2018-12-06T17:35:32.198Z,101415.92
2018-12-06T17:37:59.684Z,101406.99
2018-12-06T17:40:27.132Z,101409.58
2018-12-06T17:42:54.957Z,101402.28
2018-12-06T17:45:22.444Z,101404.13
2018-12-06T17:47:49.923Z,101396.83
2018-12-06T17:50:17.403Z,101381.50
2018-12-06T17:52:44.992Z,101387.91
2018-12-06T17:55:12.576Z,101388.23
2018-12-06T17:57:40.046Z,101395.85
2018-12-06T18:00:10.533Z,101391.38
2018-12-06T18:02:38.099Z,101400.74
2018-12-06T18:05:05.827Z,101397.87
2018-12-06T18:07:33.306Z,101391.94
2018-12-06T18:10:00.774Z,101393.06
2018-12-06T18:12:28.212Z,101392.73
2018-12-06T18:14:55.743Z,101392.66
2018-12-06T18:17:23.187Z,101398.58
2018-12-06T18:19:50.882Z,101402.05
2018-12-06T18:22:18.320Z,101394.67
2018-12-06T18:24:45.779Z,101391.28
2018-12-06T18:27:13.262Z,101392.89
2018-12-06T18:29:40.743Z,101397.30
2018-12-06T18:32:08.213Z,101390.66
2018-12-06T18:34:35.706Z,101397.07
2018-12-06T18:37:03.196Z,101394.34
2018-12-06T18:39:30.696Z,101403.66
2018-12-06T18:41:58.157Z,101407.09
2018-12-06T18:44:25.647Z,101399.80
2018-12-06T18:46:53.096Z,101400.92
2018-12-06T18:49:20.607Z,101391.52
2018-12-06T18:51:48.211Z,101394.67
2018-12-06T18:54:15.747Z,101398.20
2018-12-06T18:56:43.833Z,101392.17
2018-12-06T18:59:11.333Z,101397.87
2018-12-06T19:01:38.815Z,101405.67
2018-12-06T19:04:06.317Z,101400.84
2018-12-06T19:06:37.813Z,101414.56
2018-12-06T19:09:05.822Z,101408.63
2018-12-06T19:11:33.314Z,101400.59
2018-12-06T19:14:00.769Z,101396.74
2018-12-06T19:16:28.276Z,101403.98
2018-12-06T19:18:55.760Z,101396.13
2018-12-06T19:21:23.229Z,101397.62
2018-12-06T19:23:50.712Z,101395.94
2018-12-06T19:26:18.189Z,101399.70
2018-12-06T19:28:46.262Z,101394.81
2018-12-06T19:31:13.723Z,101392.89
2018-12-06T19:33:41.193Z,101392.66
2018-12-06T19:36:08.657Z,101390.34
2018-12-06T19:38:36.140Z,101394.99
2018-12-06T19:41:03.628Z,101384.70
2018-12-06T19:43:31.119Z,101394.58
2018-12-06T19:45:58.574Z,101391.77
2018-12-06T19:48:27.308Z,101392.50
2018-12-06T19:50:55.054Z,101387.94
2018-12-06T19:53:22.537Z,101396.69
2018-12-06T19:55:50.039Z,101394.66
2018-12-06T19:58:17.508Z,101400.59
2018-12-06T20:00:44.998Z,101397.48
2018-12-06T20:03:12.528Z,101390.48
2018-12-06T20:05:40.032Z,101397.24
2018-12-06T20:08:07.509Z,101383.36
2018-12-06T20:10:35.840Z,101387.92
2018-12-06T20:13:03.315Z,101378.52
2018-12-06T20:15:30.814Z,101374.37
2018-12-06T20:17:58.293Z,101367.70
2018-12-06T20:20:25.804Z,101369.95
2018-12-06T20:22:53.305Z,101359.20
2018-12-06T20:25:20.824Z,101366.02
2018-12-06T20:27:48.284Z,101358.87
2018-12-06T20:30:15.753Z,101362.39
2018-12-06T20:32:43.287Z,101361.83
2018-12-06T20:35:10.886Z,101361.91
2018-12-06T20:37:38.344Z,101361.34
2018-12-06T20:40:06.042Z,101357.91
2018-12-06T20:42:33.503Z,101356.08
2018-12-06T20:45:01.005Z,101357.44
2018-12-06T20:47:28.504Z,101364.08
2018-12-06T20:49:55.979Z,101362.90
2018-12-06T20:52:23.457Z,101358.15
2018-12-06T20:54:50.937Z,101351.80
2018-12-06T20:57:18.466Z,101352.78
2018-12-06T20:59:45.921Z,101357.82
2018-12-06T21:02:13.419Z,101353.24
2018-12-06T21:04:41.449Z,101355.89
2018-12-06T21:07:08.912Z,101345.71
2018-12-06T21:09:36.421Z,101343.22
2018-12-06T21:12:03.927Z,101350.52
2018-12-06T21:14:31.504Z,101344.81
2018-12-06T21:16:58.961Z,101341.20
2018-12-06T21:19:26.459Z,101339.44
2018-12-06T21:21:53.958Z,101333.01
2018-12-06T21:24:21.414Z,101335.11
2018-12-06T21:26:48.897Z,101333.01
2018-12-06T21:29:16.343Z,101334.64
2018-12-06T21:31:43.818Z,101343.22
2018-12-06T21:34:11.302Z,101328.87
2018-12-06T21:36:38.808Z,101334.14
2018-12-06T21:39:07.202Z,101338.41
2018-12-06T21:41:34.716Z,101330.45
2018-12-06T21:44:02.188Z,101342.56
2018-12-06T21:46:29.660Z,101338.95
2018-12-06T21:48:57.158Z,101329.92
2018-12-06T21:51:24.634Z,101327.48
2018-12-06T21:53:52.128Z,101331.11
2018-12-06T21:56:19.615Z,101330.23
2018-12-06T21:58:47.779Z,101327.59
2018-12-06T22:01:15.239Z,101328.78
2018-12-06T22:03:42.750Z,101322.86
2018-12-06T22:06:10.245Z,101326.95
2018-12-06T22:08:37.733Z,101332.88
2018-12-06T22:11:05.157Z,101329.59
2018-12-06T22:13:32.672Z,101317.41
2018-12-06T22:16:00.132Z,101312.11
2018-12-06T22:18:27.623Z,101311.55
2018-12-06T22:20:56.347Z,101317.48
2018-12-06T22:23:24.029Z,101309.77
2018-12-06T22:25:51.519Z,101317.33
2018-12-06T22:28:18.973Z,101320.35
2018-12-06T22:30:46.474Z,101324.85
2018-12-06T22:33:13.953Z,101318.66
2018-12-06T22:35:41.979Z,101332.80
2018-12-06T22:38:09.487Z,101328.37
2018-12-06T22:40:36.915Z,101323.78
2018-12-06T22:43:04.389Z,101320.67
2018-12-06T22:48:32.343Z,101321.70
2018-12-06T22:50:59.817Z,101321.46
2018-12-06T22:53:27.326Z,101322.17
2018-12-06T22:55:54.885Z,101327.01
2018-12-06T22:58:22.402Z,101317.52
2018-12-06T23:00:52.389Z,101313.91
2018-12-06T23:03:19.943Z,101315.67
2018-12-06T23:05:48.338Z,101308.63
2018-12-06T23:08:15.813Z,101318.16
2018-12-06T23:10:43.269Z,101315.31
2018-12-06T23:13:10.766Z,101307.98
2018-12-06T23:15:38.244Z,101306.81
2018-12-06T23:18:05.722Z,101302.96
2018-12-06T23:20:33.185Z,101310.98
2018-12-06T23:23:00.668Z,101310.72
2018-12-06T23:25:28.977Z,101315.17
2018-12-06T23:27:56.487Z,101309.20
2018-12-06T23:30:44.962Z,101309.25
2018-12-06T23:33:12.435Z,101303.53
2018-12-06T23:35:39.986Z,101300.55
2018-12-06T23:38:07.539Z,101300.92
2018-12-06T23:40:34.988Z,101299.24
2018-12-06T23:43:02.482Z,101293.31
2018-12-06T23:45:29.971Z,101298.84
2018-12-06T23:47:57.416Z,101287.95
2018-12-06T23:50:24.923Z,101291.72
2018-12-06T23:55:43.572Z,101283.41
2018-12-06T23:58:11.027Z,101274.16
